createdAt,value
2023-02-09T00:01:54.992Z,149.40
2023-02-09T00:04:56.718Z,173.20
2023-02-09T00:07:58.742Z,149.60
2023-02-09T00:11:00.630Z,134.90
2023-02-09T00:14:02.294Z,157.30
2023-02-09T00:17:04.885Z,139.50
2023-02-09T00:20:08.483Z,129.40
2023-02-09T00:23:10.088Z,143.70
2023-02-09T00:26:11.984Z,156.60
2023-02-09T00:29:14.617Z,147.70
2023-02-09T00:32:16.272Z,129.40
2023-02-09T00:35:18.202Z,133.90
2023-02-09T00:38:19.757Z,138.10
2023-02-09T00:41:21.400Z,140.50
2023-02-09T00:44:22.942Z,154.80
2023-02-09T00:47:25.064Z,148.20
2023-02-09T00:50:28.011Z,137.40
2023-02-09T00:53:30.065Z,141.30
2023-02-09T00:56:31.734Z,152.80
2023-02-09T00:59:34.699Z,162.50
2023-02-09T01:02:36.962Z,160.20
2023-02-09T01:05:43.023Z,165.60
2023-02-09T01:08:45.103Z,170.00
2023-02-09T01:11:46.910Z,167.40
2023-02-09T01:14:48.647Z,160.50
2023-02-09T01:20:52.043Z,167.50
2023-02-09T01:23:53.616Z,169.30
2023-02-09T01:26:55.599Z,179.10
2023-02-09T01:29:57.514Z,172.10
2023-02-09T01:32:59.227Z,165.80
2023-02-09T01:36:04.782Z,159.10
2023-02-09T01:39:08.474Z,144.50
2023-02-09T01:42:18.530Z,171.90
2023-02-09T01:45:23.418Z,175.90
2023-02-09T01:48:28.601Z,171.30
2023-02-09T01:51:33.587Z,180.50
2023-02-09T01:54:51.680Z,192.50
2023-02-09T01:57:57.149Z,192.20
2023-02-09T02:01:00.191Z,166.90
2023-02-09T02:04:02.155Z,176.20
2023-02-09T02:07:18.518Z,168.00
2023-02-09T02:10:20.226Z,154.00
2023-02-09T02:13:21.891Z,159.00
2023-02-09T02:20:07.716Z,153.50
2023-02-09T02:23:30.753Z,142.90
2023-02-09T02:26:41.166Z,135.80
2023-02-09T02:29:52.048Z,143.60
2023-02-09T02:33:05.616Z,142.00
2023-02-09T02:36:28.565Z,143.40
2023-02-09T02:39:44.054Z,194.40
2023-02-09T02:42:53.738Z,169.10
2023-02-09T02:45:55.333Z,155.90
2023-02-09T02:49:08.184Z,142.70
2023-02-09T02:52:11.124Z,148.80
2023-02-09T02:55:18.776Z,146.00
2023-02-09T02:58:22.323Z,148.50
2023-02-09T03:01:26.502Z,155.70
2023-02-09T03:04:28.648Z,157.40
2023-02-09T03:07:31.690Z,148.40
2023-02-09T03:10:36.463Z,150.60
2023-02-09T03:13:57.092Z,145.20
2023-02-09T03:17:35.536Z,127.30
2023-02-09T03:20:59.421Z,121.90
2023-02-09T03:24:07.356Z,137.40
2023-02-09T03:27:22.163Z,148.80
2023-02-09T03:30:24.617Z,164.40
2023-02-09T03:33:30.638Z,147.60
2023-02-09T03:36:35.304Z,145.30
2023-02-09T03:39:37.122Z,152.20
2023-02-09T03:45:40.540Z,156.70
2023-02-09T03:48:42.035Z,150.20
2023-02-09T03:51:43.826Z,140.10
2023-02-09T03:54:45.868Z,168.60
2023-02-09T03:57:47.549Z,158.60
2023-02-09T04:00:49.264Z,158.70
2023-02-09T04:03:51.000Z,168.30
2023-02-09T04:06:52.590Z,165.10
2023-02-09T04:09:54.290Z,167.40
2023-02-09T04:12:55.909Z,166.20
2023-02-09T04:15:57.467Z,169.00
2023-02-09T04:18:59.199Z,159.70
2023-02-09T04:22:00.785Z,170.20
2023-02-09T04:25:02.377Z,173.90
2023-02-09T04:28:04.120Z,167.80
2023-02-09T04:31:05.953Z,156.90
2023-02-09T04:37:09.449Z,143.10
2023-02-09T04:40:11.299Z,137.80
2023-02-09T04:43:12.852Z,161.80
2023-02-09T04:46:16.857Z,161.00
2023-02-09T04:49:18.458Z,154.90
2023-02-09T04:52:20.124Z,175.40
2023-02-09T04:55:21.660Z,164.30
2023-02-09T04:58:23.313Z,178.20
2023-02-09T05:01:25.672Z,153.50
2023-02-09T05:04:27.617Z,152.40
2023-02-09T05:10:31.050Z,147.40
2023-02-09T05:13:32.789Z,159.20
2023-02-09T05:19:35.932Z,156.10
2023-02-09T05:25:39.180Z,121.30
2023-02-09T05:28:40.709Z,125.20
2023-02-09T05:31:42.276Z,146.30
2023-02-09T05:34:44.149Z,147.50
2023-02-09T05:37:45.638Z,128.70
2023-02-09T05:40:47.734Z,155.80
2023-02-09T05:43:49.671Z,147.50
2023-02-09T05:46:51.208Z,135.00
2023-02-09T05:49:53.059Z,152.30
2023-02-09T05:55:56.045Z,122.90
2023-02-09T05:58:57.720Z,151.40
2023-02-09T06:01:59.855Z,147.80
2023-02-09T06:05:01.611Z,163.00
2023-02-09T06:08:03.503Z,192.00
2023-02-09T06:14:06.680Z,168.60
2023-02-09T06:17:08.485Z,145.20
2023-02-09T06:20:10.820Z,165.50
2023-02-09T06:23:12.418Z,170.40
2023-02-09T06:26:17.124Z,161.60
2023-02-09T06:29:18.854Z,163.60
2023-02-09T06:32:20.465Z,172.00
2023-02-09T06:35:22.369Z,186.40
2023-02-09T06:41:25.625Z,178.60
2023-02-09T06:44:27.147Z,220.60
2023-02-09T06:47:28.774Z,222.00
2023-02-09T06:50:31.005Z,187.10
2023-02-09T06:53:32.838Z,215.70
2023-02-09T06:56:34.379Z,211.70
2023-02-09T06:59:36.152Z,188.40
2023-02-09T07:02:37.814Z,192.40
2023-02-09T07:05:40.174Z,195.10
2023-02-09T07:08:42.482Z,177.10
2023-02-09T07:11:44.002Z,159.50
2023-02-09T07:14:45.679Z,158.70
2023-02-09T07:17:47.520Z,181.70
2023-02-09T07:21:00.534Z,184.00
2023-02-09T07:24:02.084Z,194.30
2023-02-09T07:27:06.992Z,188.70
2023-02-09T07:30:09.683Z,186.00
2023-02-09T07:33:11.221Z,187.10
2023-02-09T07:36:15.441Z,201.10
2023-02-09T07:39:17.629Z,210.40
2023-02-09T07:42:19.492Z,200.20
2023-02-09T07:45:21.053Z,186.60
2023-02-09T07:48:22.732Z,179.60
2023-02-09T07:51:24.734Z,171.10
2023-02-09T07:54:26.569Z,179.20
2023-02-09T08:00:29.953Z,175.90
2023-02-09T08:03:32.195Z,166.20
2023-02-09T08:06:43.420Z,169.20
2023-02-09T08:09:45.233Z,159.60
2023-02-09T08:12:46.991Z,155.30
2023-02-09T08:16:01.227Z,142.40
2023-02-09T08:19:15.623Z,145.20
2023-02-09T08:22:17.558Z,149.20
2023-02-09T08:28:31.806Z,174.30
2023-02-09T08:31:40.648Z,168.20
2023-02-09T08:34:42.365Z,170.70
2023-02-09T08:40:46.370Z,160.50
2023-02-09T08:43:51.672Z,158.70
2023-02-09T08:46:53.582Z,164.10
2023-02-09T08:49:55.384Z,147.10
2023-02-09T08:55:58.584Z,150.90
2023-02-09T08:59:00.211Z,141.90
2023-02-09T09:02:02.081Z,137.20
2023-02-09T09:11:08.500Z,115.20
2023-02-09T09:14:10.182Z,107.80
2023-02-09T09:17:11.747Z,99.80
2023-02-09T09:20:13.729Z,91.70
2023-02-09T09:23:15.540Z,89.40
2023-02-09T09:26:17.545Z,91.10
2023-02-09T09:29:19.090Z,89.50
2023-02-09T09:32:20.828Z,91.50
2023-02-09T09:35:22.718Z,98.00
2023-02-09T09:38:24.252Z,86.40
2023-02-09T09:41:31.193Z,84.20
2023-02-09T09:44:41.750Z,82.00
2023-02-09T09:47:43.943Z,75.20
2023-02-09T09:50:46.415Z,73.90
2023-02-09T09:53:51.108Z,78.80
2023-02-09T09:56:53.974Z,80.70
2023-02-09T09:59:56.700Z,81.20
2023-02-09T10:02:58.392Z,77.20
2023-02-09T10:06:02.026Z,69.00
2023-02-09T10:09:16.939Z,71.80
2023-02-09T10:12:36.885Z,71.00
2023-02-09T10:15:38.564Z,72.70
2023-02-09T10:18:40.152Z,65.90
2023-02-09T10:21:41.923Z,65.90
2023-02-09T10:24:43.587Z,70.60
2023-02-09T10:27:46.452Z,80.50
2023-02-09T10:30:51.234Z,73.40
2023-02-09T10:33:59.106Z,74.70
2023-02-09T10:37:17.414Z,68.00
2023-02-09T10:40:27.794Z,67.70
2023-02-09T10:43:33.850Z,70.20
2023-02-09T10:46:37.721Z,70.80
2023-02-09T10:49:39.436Z,70.70
2023-02-09T10:53:01.813Z,69.20
2023-02-09T10:56:15.100Z,65.80
2023-02-09T10:59:22.454Z,64.50
2023-02-09T11:02:37.819Z,62.70
2023-02-09T11:05:39.474Z,65.90
2023-02-09T11:08:47.363Z,63.10
2023-02-09T11:11:49.110Z,62.30
2023-02-09T11:14:50.763Z,59.90
2023-02-09T11:18:17.320Z,55.80
2023-02-09T11:21:31.702Z,57.10
2023-02-09T11:24:43.401Z,54.30
2023-02-09T11:28:18.911Z,54.80
2023-02-09T11:31:35.956Z,54.80
2023-02-09T11:34:54.069Z,58.10
2023-02-09T11:38:02.937Z,57.30
2023-02-09T11:41:08.399Z,59.50
2023-02-09T11:44:18.643Z,60.60
2023-02-09T11:47:30.573Z,62.70
2023-02-09T11:51:09.993Z,67.80
2023-02-09T11:54:17.763Z,69.10
2023-02-09T11:57:33.685Z,71.50
2023-02-09T12:00:54.749Z,70.70
2023-02-09T12:04:16.292Z,67.00
2023-02-09T12:07:21.795Z,72.40
2023-02-09T12:10:42.273Z,71.50
2023-02-09T12:14:07.337Z,73.10
2023-02-09T12:17:24.325Z,72.90
2023-02-09T12:20:29.554Z,78.50
2023-02-09T12:23:37.904Z,80.30
2023-02-09T12:26:44.388Z,81.50
2023-02-09T12:29:45.997Z,77.30
2023-02-09T12:32:47.664Z,77.00
2023-02-09T12:39:26.353Z,66.30
2023-02-09T12:42:30.746Z,79.80
2023-02-09T12:45:44.257Z,73.00
2023-02-09T12:48:50.948Z,78.30
2023-02-09T12:52:04.338Z,65.00
2023-02-09T12:55:18.268Z,67.50
2023-02-09T12:58:44.691Z,67.20
2023-02-09T13:02:08.074Z,67.10
2023-02-09T13:05:12.999Z,65.10
2023-02-09T13:08:21.562Z,66.30
2023-02-09T13:11:49.820Z,64.80
2023-02-09T13:14:51.593Z,62.20
2023-02-09T13:18:17.825Z,66.40
2023-02-09T13:21:35.083Z,59.00
2023-02-09T13:24:45.172Z,66.60
2023-02-09T13:27:48.963Z,62.80
2023-02-09T13:30:50.624Z,64.10
2023-02-09T13:37:10.026Z,54.70
2023-02-09T13:40:17.759Z,57.50
2023-02-09T13:43:30.541Z,54.80
2023-02-09T13:46:33.103Z,57.40
2023-02-09T13:49:34.799Z,54.80
2023-02-09T13:55:41.035Z,54.80
2023-02-09T14:01:45.053Z,57.00
2023-02-09T14:04:49.967Z,58.50
2023-02-09T14:07:52.414Z,50.00
2023-02-09T14:11:13.421Z,51.00
2023-02-09T14:14:45.099Z,45.70
2023-02-09T14:17:50.813Z,48.80
2023-02-09T14:21:22.108Z,55.20
2023-02-09T14:24:28.342Z,64.30
2023-02-09T14:27:31.814Z,75.10
2023-02-09T14:30:35.530Z,66.80
2023-02-09T14:33:37.669Z,72.00
2023-02-09T14:36:39.340Z,64.40
2023-02-09T14:43:17.018Z,65.60
2023-02-09T14:46:18.563Z,123.00
2023-02-09T14:49:21.309Z,63.50
2023-02-09T14:52:24.651Z,60.40
2023-02-09T14:55:28.627Z,67.60
2023-02-09T14:58:32.018Z,55.60
2023-02-09T15:01:33.625Z,58.70
2023-02-09T15:07:39.836Z,52.00
2023-02-09T15:10:47.614Z,44.80
2023-02-09T15:13:53.520Z,43.50
2023-02-09T15:16:55.060Z,35.70
2023-02-09T15:19:57.971Z,36.90
2023-02-09T15:22:59.816Z,36.30
2023-02-09T15:29:10.668Z,42.50
2023-02-09T15:32:15.299Z,42.80
2023-02-09T15:35:20.172Z,40.30
2023-02-09T15:38:21.832Z,43.80
2023-02-09T15:44:25.073Z,42.90
2023-02-09T15:50:29.786Z,42.60
2023-02-09T15:53:31.616Z,44.40
2023-02-09T15:59:35.508Z,50.40
2023-02-09T16:02:37.156Z,49.10
2023-02-09T16:05:39.244Z,53.70
2023-02-09T16:08:41.140Z,53.10
2023-02-09T16:11:42.954Z,53.60
2023-02-09T16:14:44.703Z,49.90
2023-02-09T16:20:50.659Z,50.10
2023-02-09T16:23:54.799Z,41.10
2023-02-09T16:26:59.349Z,59.10
2023-02-09T16:30:00.983Z,55.10
2023-02-09T16:33:02.719Z,60.80
2023-02-09T16:36:10.904Z,54.90
2023-02-09T16:39:17.117Z,63.30
2023-02-09T16:42:18.737Z,58.70
2023-02-09T16:45:20.956Z,48.90
2023-02-09T16:48:25.489Z,47.10
2023-02-09T16:51:27.213Z,43.50
2023-02-09T16:57:31.666Z,45.80
2023-02-09T17:00:35.771Z,43.10
2023-02-09T17:03:40.562Z,36.20
2023-02-09T17:06:42.190Z,39.60
2023-02-09T17:09:43.736Z,43.10
2023-02-09T17:12:45.490Z,44.30
2023-02-09T17:15:49.886Z,53.00
2023-02-09T17:18:54.025Z,53.00
2023-02-09T17:21:55.582Z,49.60
2023-02-09T17:24:57.348Z,45.30
2023-02-09T17:27:59.027Z,53.00
2023-02-09T17:31:02.405Z,57.50
2023-02-09T17:34:07.054Z,72.80
2023-02-09T17:37:12.924Z,108.20
2023-02-09T17:40:19.719Z,116.00
2023-02-09T17:43:21.824Z,119.60
2023-02-09T17:46:23.508Z,120.80
2023-02-09T17:49:25.326Z,131.00
2023-02-09T17:55:29.535Z,118.20
2023-02-09T17:58:31.077Z,90.20
2023-02-09T18:01:32.691Z,90.50
2023-02-09T18:04:34.629Z,84.40
2023-02-09T18:10:37.926Z,78.70
2023-02-09T18:16:41.401Z,80.10
2023-02-09T18:19:43.044Z,77.70
2023-02-09T18:22:44.746Z,81.70
2023-02-09T18:25:46.747Z,83.80
2023-02-09T18:28:48.464Z,93.00
2023-02-09T18:31:50.710Z,91.10
2023-02-09T18:34:52.296Z,97.50
2023-02-09T18:37:54.015Z,86.60
2023-02-09T18:40:55.572Z,83.20
2023-02-09T18:43:57.245Z,82.20
2023-02-09T18:46:59.935Z,81.90
2023-02-09T18:50:01.463Z,81.00
2023-02-09T18:53:03.625Z,88.70
2023-02-09T18:56:05.686Z,102.10
2023-02-09T18:59:07.207Z,97.90
2023-02-09T19:02:11.145Z,88.40
2023-02-09T19:05:15.151Z,93.40
2023-02-09T19:08:16.795Z,94.10
2023-02-09T19:11:20.564Z,129.40
2023-02-09T19:14:22.361Z,108.60
2023-02-09T19:17:24.368Z,111.30
2023-02-09T19:20:30.734Z,104.20
2023-02-09T19:23:32.365Z,102.50
2023-02-09T19:26:34.035Z,177.30
2023-02-09T19:29:37.453Z,119.20
2023-02-09T19:32:39.226Z,132.10
2023-02-09T19:35:40.839Z,123.40
2023-02-09T19:38:42.520Z,118.40
2023-02-09T19:41:44.212Z,114.40
2023-02-09T19:44:45.800Z,98.20
2023-02-09T19:47:47.461Z,88.10
2023-02-09T19:50:56.888Z,102.20
2023-02-09T19:53:58.519Z,114.20
2023-02-09T19:57:00.321Z,110.50
2023-02-09T20:03:06.952Z,95.60
2023-02-09T20:06:10.047Z,95.50
2023-02-09T20:09:11.641Z,93.50
2023-02-09T20:12:13.412Z,96.90
2023-02-09T20:15:15.226Z,94.70
2023-02-09T20:21:22.099Z,88.40
2023-02-09T20:24:23.703Z,89.40
2023-02-09T20:27:25.800Z,88.50
2023-02-09T20:33:29.096Z,100.70
2023-02-09T20:36:32.649Z,97.60
2023-02-09T20:39:34.316Z,100.30
2023-02-09T20:42:35.990Z,122.00
2023-02-09T20:45:37.616Z,111.10
2023-02-09T20:48:39.183Z,107.40
2023-02-09T20:51:40.788Z,98.10
2023-02-09T20:54:42.302Z,98.10
2023-02-09T20:57:44.028Z,86.30
2023-02-09T21:00:45.948Z,90.70
2023-02-09T21:03:47.525Z,113.60
2023-02-09T21:06:49.064Z,110.50
2023-02-09T21:09:51.034Z,113.50
2023-02-09T21:15:54.202Z,81.80
2023-02-09T21:18:55.774Z,102.30
2023-02-09T21:21:57.511Z,95.90
2023-02-09T21:24:59.210Z,104.40
2023-02-09T21:28:00.899Z,115.40
2023-02-09T21:31:02.836Z,113.00
2023-02-09T21:37:06.498Z,122.70
2023-02-09T21:40:09.210Z,137.20
2023-02-09T21:43:11.829Z,111.30
2023-02-09T21:46:16.781Z,110.80
2023-02-09T21:49:18.353Z,124.20
2023-02-09T21:52:20.372Z,114.50
2023-02-09T21:55:21.953Z,123.40
2023-02-09T21:58:23.529Z,123.90
2023-02-09T22:01:25.114Z,151.10
2023-02-09T22:04:26.703Z,138.90
2023-02-09T22:07:28.510Z,130.40
2023-02-09T22:10:30.083Z,138.50
2023-02-09T22:13:32.614Z,136.40
2023-02-09T22:16:34.309Z,136.20
2023-02-09T22:19:37.115Z,138.40
2023-02-09T22:22:38.678Z,130.70
2023-02-09T22:25:40.260Z,125.30
2023-02-09T22:28:42.631Z,124.30
2023-02-09T22:31:44.514Z,129.30
2023-02-09T22:37:47.580Z,121.90
2023-02-09T22:40:49.113Z,136.60
2023-02-09T22:43:55.713Z,159.40
2023-02-09T22:46:57.317Z,160.30
2023-02-09T22:49:59.206Z,171.40
2023-02-09T22:56:03.346Z,118.80
2023-02-09T22:59:05.258Z,122.60
2023-02-09T23:02:07.009Z,121.20
2023-02-09T23:05:08.691Z,99.90
2023-02-09T23:08:10.241Z,109.20
2023-02-09T23:11:14.369Z,117.30
2023-02-09T23:14:16.706Z,114.50
2023-02-09T23:17:19.489Z,112.20
2023-02-09T23:20:21.162Z,105.80
2023-02-09T23:23:22.699Z,115.20
2023-02-09T23:26:24.756Z,112.70
2023-02-09T23:29:26.512Z,117.30
2023-02-09T23:32:28.044Z,122.70
2023-02-09T23:35:29.817Z,134.90
2023-02-09T23:38:31.683Z,122.50
2023-02-09T23:44:35.099Z,113.50
2023-02-09T23:47:36.718Z,128.20
2023-02-09T23:50:38.373Z,120.80
2023-02-09T23:53:40.168Z,114.80
2023-02-09T23:56:41.697Z,129.50
2023-02-09T23:59:43.234Z,126.40
